Time;durP1;ratioP1;P1;durP2;ratioP2;P2;SDS_P1;SDS_P2;PMS_P1;PMS_P2;Temp;Humidity;BMP_temperature;BMP_pressure;BME280_temperature;BME280_humidity;BME280_pressure;Samples;Min_cycle;Max_cycle;Signal;HPM_P1;HPM_P2
2023/10/01 00:00:17;;;;;;;1999.90;999.90;;;15.40;99.90;;;;;;5096381;28;20035;-67
2023/10/01 00:02:45;;;;;;;1999.90;999.90;;;15.40;99.90;;;;;;5095571;28;20097;-67
2023/10/01 00:05:11;;;;;;;1999.90;999.90;;;15.40;99.90;;;;;;5112873;28;20031;-67
2023/10/01 00:07:37;;;;;;;1999.90;999.90;;;15.40;99.90;;;;;;5097710;28;20319;-69
2023/10/01 00:10:11;;;;;;;1999.90;999.90;;;15.40;99.90;;;;;;5100274;28;20492;-67
2023/10/01 00:12:46;;;;;;;1999.90;999.90;;;15.40;99.90;;;;;;5091196;28;20731;-67
2023/10/01 00:15:15;;;;;;;1999.90;999.90;;;15.40;99.90;;;;;;5098272;28;20329;-73
2023/10/01 00:17:44;;;;;;;1999.90;999.90;;;15.40;99.90;;;;;;5098667;28;20059;-67
2023/10/01 00:20:22;;;;;;;1999.90;999.90;;;15.40;99.90;;;;;;5105163;28;20077;-66
2023/10/01 00:22:50;;;;;;;1999.90;999.90;;;15.40;99.90;;;;;;5085800;28;20496;-66
2023/10/01 00:25:22;;;;;;;1999.90;999.90;;;15.40;99.90;;;;;;5106644;28;20028;-66
2023/10/01 00:27:49;;;;;;;1999.90;999.90;;;15.40;99.90;;;;;;5082644;28;20065;-67
2023/10/01 00:30:15;;;;;;;1999.90;999.90;;;15.40;99.90;;;;;;5102779;28;20372;-67
2023/10/01 00:32:41;;;;;;;1999.90;999.90;;;15.40;99.90;;;;;;5100565;28;20442;-66
2023/10/01 00:35:11;;;;;;;1999.90;999.90;;;15.40;99.90;;;;;;5105088;28;20024;-66
2023/10/01 00:37:36;;;;;;;1999.90;999.90;;;15.40;99.90;;;;;;5093153;28;20056;-67
2023/10/01 00:40:05;;;;;;;1999.90;999.90;;;15.40;99.90;;;;;;5108076;28;20109;-67
2023/10/01 00:42:35;;;;;;;1999.90;999.90;;;15.40;99.90;;;;;;5106203;28;20027;-67
2023/10/01 00:45:02;;;;;;;1999.90;999.90;;;15.40;99.90;;;;;;5110602;28;20296;-73
2023/10/01 00:47:30;;;;;;;1999.90;999.90;;;15.40;99.90;;;;;;5105865;28;20022;-67
2023/10/01 00:49:57;;;;;;;1999.90;999.90;;;15.40;99.90;;;;;;5104701;28;20062;-67
2023/10/01 00:52:23;;;;;;;1999.90;999.90;;;15.40;99.90;;;;;;5110770;28;20027;-66
2023/10/01 00:54:54;;;;;;;1999.90;999.90;;;15.40;99.90;;;;;;5107837;28;20024;-67
2023/10/01 00:57:21;;;;;;;1999.90;999.90;;;15.40;99.90;;;;;;5108860;28;20048;-67
2023/10/01 00:59:47;;;;;;;;;;;15.30;99.90;;;;;;5104985;28;20070;-67
2023/10/01 01:02:15;;;;;;;1999.90;999.90;;;15.30;99.90;;;;;;5106659;28;19907;-67
2023/10/01 01:05:05;;;;;;;1999.90;999.90;;;15.30;99.90;;;;;;5104397;28;20027;-67
2023/10/01 01:07:40;;;;;;;1999.90;999.90;;;15.30;99.90;;;;;;5102185;28;20023;-67
2023/10/01 01:10:06;;;;;;;1999.90;999.90;;;15.30;99.90;;;;;;5085379;28;20169;-67
2023/10/01 01:12:32;;;;;;;;;;;15.30;99.90;;;;;;5106659;28;20432;-67
2023/10/01 01:14:59;;;;;;;1999.90;999.90;;;15.30;99.90;;;;;;5108468;28;20006;-67
2023/10/01 01:17:24;;;;;;;1999.90;999.90;;;15.40;99.90;;;;;;5108193;28;20031;-66
2023/10/01 01:19:55;;;;;;;1999.90;999.90;;;15.40;99.90;;;;;;5099480;28;20028;-67
2023/10/01 01:22:28;;;;;;;1999.90;999.90;;;15.40;99.90;;;;;;5107318;28;20034;-66
2023/10/01 01:24:57;;;;;;;1999.90;999.90;;;15.50;99.90;;;;;;5090052;28;20164;-66
2023/10/01 01:27:23;;;;;;;1999.90;999.90;;;15.50;99.90;;;;;;5106663;28;20028;-66
2023/10/01 01:29:50;;;;;;;1999.90;999.90;;;15.50;99.90;;;;;;5101345;28;20085;-66
2023/10/01 01:32:17;;;;;;;1999.90;999.90;;;15.50;99.90;;;;;;5096584;28;20050;-67
2023/10/01 01:34:46;;;;;;;1999.90;999.90;;;15.60;99.90;;;;;;5098680;28;20032;-66
2023/10/01 01:37:36;;;;;;;1999.90;999.90;;;15.60;99.90;;;;;;5097858;28;20046;-66
2023/10/01 01:40:23;;;;;;;1999.90;999.90;;;15.60;99.90;;;;;;5103488;28;20407;-66
2023/10/01 01:43:04;;;;;;;1999.90;999.90;;;15.60;99.90;;;;;;5111489;28;20057;-66
2023/10/01 01:45:38;;;;;;;1999.90;999.90;;;15.60;99.90;;;;;;5077805;28;20111;-65
2023/10/01 01:48:21;;;;;;;1999.90;999.90;;;15.60;99.90;;;;;;5091503;28;20063;-66
2023/10/01 01:50:54;;;;;;;1999.90;999.90;;;15.60;99.90;;;;;;5111489;28;20043;-66
2023/10/01 01:53:21;;;;;;;1999.90;999.90;;;15.70;99.90;;;;;;5111063;28;20039;-66
2023/10/01 01:55:47;;;;;;;1999.90;999.90;;;15.70;99.90;;;;;;5116458;28;20020;-66
2023/10/01 01:58:15;;;;;;;1999.90;999.90;;;15.70;99.90;;;;;;5113644;28;20039;-66
2023/10/01 02:03:27;;;;;;;1999.90;999.90;;;15.70;99.90;;;;;;5111644;28;20345;-66
2023/10/01 02:05:53;;;;;;;1999.90;999.90;;;15.70;99.90;;;;;;5109352;28;20055;-66
2023/10/01 02:08:23;;;;;;;1999.90;999.90;;;15.70;99.90;;;;;;5116199;28;20035;-66
2023/10/01 02:10:55;;;;;;;1999.90;999.90;;;15.70;99.90;;;;;;5110748;28;20047;-66
2023/10/01 02:13:25;;;;;;;1999.90;999.90;;;15.70;99.90;;;;;;5098988;28;20027;-66
2023/10/01 02:15:52;;;;;;;1999.90;999.90;;;15.70;99.90;;;;;;5117699;28;20043;-66
2023/10/01 02:18:20;;;;;;;1999.90;999.90;;;15.70;99.90;;;;;;5113746;28;20028;-66
2023/10/01 02:20:55;;;;;;;1999.90;999.90;;;15.70;99.90;;;;;;5095501;28;20027;-67
2023/10/01 02:23:32;;;;;;;1999.90;999.90;;;15.70;99.90;;;;;;5117044;28;20020;-66
2023/10/01 02:26:00;;;;;;;1999.90;999.90;;;15.70;99.90;;;;;;5117445;28;20035;-66
2023/10/01 02:28:32;;;;;;;1999.90;999.90;;;15.70;99.90;;;;;;5106294;28;20482;-67
2023/10/01 02:31:06;;;;;;;1999.90;999.90;;;15.70;99.90;;;;;;5098404;28;20031;-66
2023/10/01 02:33:55;;;;;;;1999.90;999.90;;;15.70;99.90;;;;;;5108370;28;20057;-67
2023/10/01 02:36:22;;;;;;;1999.90;999.90;;;15.70;99.90;;;;;;5117488;28;20020;-66
2023/10/01 02:38:53;;;;;;;1999.90;999.90;;;15.70;99.90;;;;;;5114070;28;20317;-66
2023/10/01 02:41:25;;;;;;;1999.90;999.90;;;15.70;99.90;;;;;;5117075;28;20040;-66
2023/10/01 02:43:55;;;;;;;1999.90;999.90;;;15.70;99.90;;;;;;5102746;28;21235;-66
2023/10/01 02:46:27;;;;;;;1999.90;999.90;;;15.70;99.90;;;;;;5094798;28;20040;-67
2023/10/01 02:48:59;;;;;;;1999.90;999.90;;;15.70;99.90;;;;;;5116272;28;20065;-66
2023/10/01 02:51:38;;;;;;;1999.90;999.90;;;15.70;99.90;;;;;;5117363;28;20027;-66
2023/10/01 02:54:17;;;;;;;1999.90;999.90;;;15.70;99.90;;;;;;5109080;28;20038;-65
2023/10/01 02:56:53;;;;;;;1999.90;999.90;;;15.70;99.90;;;;;;5098636;28;20072;-66
2023/10/01 02:59:23;;;;;;;1999.90;999.90;;;15.70;99.90;;;;;;5113559;28;20039;-67
2023/10/01 03:01:49;;;;;;;1999.90;999.90;;;15.70;99.90;;;;;;5106255;28;20051;-65
2023/10/01 03:04:16;;;;;;;1999.90;999.90;;;15.70;99.90;;;;;;5109049;28;20119;-67
2023/10/01 03:06:56;;;;;;;1999.90;999.90;;;15.70;99.90;;;;;;5116782;28;20023;-66
2023/10/01 03:09:42;;;;;;;1999.90;999.90;;;15.70;99.90;;;;;;5110952;28;20126;-66
2023/10/01 03:17:55;;;;;;;1999.90;999.90;;;15.70;99.90;;;;;;5053896;28;20339;-66
2023/10/01 03:23:11;;;;;;;1999.90;999.90;;;15.70;99.90;;;;;;5053948;28;20029;-66
2023/10/01 03:25:42;;;;;;;1999.90;999.90;;;15.60;99.90;;;;;;5053077;28;20416;-66
2023/10/01 03:28:25;;;;;;;1999.90;999.90;;;15.60;99.90;;;;;;5052854;28;20024;-66
2023/10/01 03:31:01;;;;;;;1999.90;999.90;;;15.60;99.90;;;;;;5049792;28;20542;-66
2023/10/01 03:33:30;;;;;;;1999.90;999.90;;;15.60;99.90;;;;;;5053534;28;20039;-65
2023/10/01 03:35:57;;;;;;;1999.90;999.90;;;15.60;99.90;;;;;;5053485;28;20731;-66
2023/10/01 03:38:27;;;;;;;1999.90;999.90;;;15.50;99.90;;;;;;5040600;28;20029;-65
2023/10/01 03:41:08;;;;;;;1999.90;999.90;;;15.50;99.90;;;;;;5048050;28;20055;-65
2023/10/01 03:43:37;;;;;;;1999.90;999.90;;;15.50;99.90;;;;;;5053265;28;20502;-66
2023/10/01 03:46:50;;;;;;;1999.90;999.90;;;15.50;99.90;;;;;;5052776;28;20036;-66
2023/10/01 03:48:58;;;;;;;1999.90;999.90;;;15.50;99.90;;;;;;5035405;28;20122;-66
2023/10/01 03:51:53;;;;;;;1999.90;999.90;;;15.50;99.90;;;;;;5100448;28;20036;-73
2023/10/01 03:54:54;;;;;;;1999.90;999.90;;;15.50;99.90;;;;;;5114965;28;20031;-66
2023/10/01 03:57:20;;;;;;;1999.90;999.90;;;15.50;99.90;;;;;;5097178;28;20110;-66
2023/10/01 03:59:57;;;;;;;1999.90;999.90;;;15.50;99.90;;;;;;5111896;28;20035;-66
2023/10/01 04:02:27;;;;;;;1999.90;999.90;;;15.50;99.90;;;;;;5109476;28;20119;-66
2023/10/01 04:04:56;;;;;;;1999.90;999.90;;;15.50;99.90;;;;;;5101925;28;20020;-66
2023/10/01 04:07:26;;;;;;;1999.90;999.90;;;15.50;99.90;;;;;;5115630;28;20057;-65
2023/10/01 04:09:52;;;;;;;1999.90;999.90;;;15.50;99.90;;;;;;5113090;27;20422;-66
2023/10/01 04:12:32;;;;;;;1999.90;999.90;;;15.50;99.90;;;;;;5110272;28;20035;-65
2023/10/01 04:15:02;;;;;;;1999.90;999.90;;;15.50;99.90;;;;;;5082636;28;20365;-66
2023/10/01 04:17:28;;;;;;;1999.90;999.90;;;15.50;99.90;;;;;;5110301;28;20060;-65
2023/10/01 04:20:00;;;;;;;1999.90;999.90;;;15.50;99.90;;;;;;5103733;28;20299;-66
2023/10/01 04:22:29;;;;;;;1999.90;999.90;;;15.50;99.90;;;;;;5099703;28;20048;-67
2023/10/01 04:25:10;;;;;;;1999.90;999.90;;;15.50;99.90;;;;;;5115379;28;20049;-66
2023/10/01 04:27:36;;;;;;;1999.90;999.90;;;15.50;99.90;;;;;;5102727;28;20020;-65
2023/10/01 04:30:07;;;;;;;;;;;15.50;99.90;;;;;;5109208;28;20027;-66
2023/10/01 04:32:34;;;;;;;1999.90;999.90;;;15.50;99.90;;;;;;5099013;28;19908;-66
2023/10/01 04:35:00;;;;;;;1999.90;999.90;;;15.50;99.90;;;;;;5107616;28;20027;-66
2023/10/01 04:37:40;;;;;;;1999.90;999.90;;;15.50;99.90;;;;;;5095994;28;20024;-67
2023/10/01 04:40:53;;;;;;;1999.90;999.90;;;15.50;99.90;;;;;;5102385;28;20069;-66
2023/10/01 04:43:02;;;;;;;1999.90;999.90;;;15.50;99.90;;;;;;5091088;28;20044;-66
2023/10/01 04:45:36;;;;;;;1999.90;999.90;;;15.50;99.90;;;;;;5082476;28;20063;-66
2023/10/01 04:48:10;;;;;;;1999.90;999.90;;;15.60;99.90;;;;;;5115116;28;20027;-73
2023/10/01 04:50:37;;;;;;;1999.90;999.90;;;15.50;99.90;;;;;;5108084;28;20044;-66
2023/10/01 04:53:07;;;;;;;1999.90;999.90;;;15.50;99.90;;;;;;5101964;28;20028;-66
2023/10/01 04:55:41;;;;;;;1999.90;999.90;;;15.50;99.90;;;;;;5103941;28;20023;-73
2023/10/01 04:58:12;;;;;;;1999.90;999.90;;;15.50;99.90;;;;;;5107458;28;20403;-66
2023/10/01 05:00:44;;;;;;;1999.90;999.90;;;15.50;99.90;;;;;;5101241;28;20437;-67
2023/10/01 05:03:14;;;;;;;1999.90;999.90;;;15.50;99.90;;;;;;5103994;28;20106;-66
2023/10/01 05:05:42;;;;;;;1999.90;999.90;;;15.50;99.90;;;;;;5079570;28;20399;-67
2023/10/01 05:08:12;;;;;;;1999.90;999.90;;;15.50;99.90;;;;;;5099659;28;20016;-66
2023/10/01 05:10:53;;;;;;;1999.90;999.90;;;15.50;99.90;;;;;;5107424;28;20016;-66
2023/10/01 05:13:20;;;;;;;1999.90;999.90;;;15.50;99.90;;;;;;5114187;28;20148;-66
2023/10/01 05:15:49;;;;;;;1999.90;999.90;;;15.50;99.90;;;;;;5114973;28;20095;-66
2023/10/01 05:18:19;;;;;;;1999.90;999.90;;;15.50;99.90;;;;;;5114122;28;20020;-66
2023/10/01 05:20:48;;;;;;;1999.90;999.90;;;15.50;99.90;;;;;;5098995;28;20077;-66
2023/10/01 05:23:17;;;;;;;1999.90;999.90;;;15.50;99.90;;;;;;5095099;28;20055;-66
2023/10/01 05:25:45;;;;;;;1999.90;999.90;;;15.50;99.90;;;;;;5100146;28;20344;-66
2023/10/01 05:28:23;;;;;;;1999.90;999.90;;;15.50;99.90;;;;;;5118667;28;20311;-67
2023/10/01 05:30:57;;;;;;;1999.90;999.90;;;15.50;99.90;;;;;;5118735;28;20019;-66
2023/10/01 05:33:27;;;;;;;1999.90;999.90;;;15.50;99.90;;;;;;5115882;28;20028;-66
2023/10/01 05:35:57;;;;;;;1999.90;999.90;;;15.50;99.90;;;;;;5100116;28;20032;-65
2023/10/01 05:38:26;;;;;;;1999.90;999.90;;;15.50;99.90;;;;;;5114233;28;20024;-66
2023/10/01 05:40:55;;;;;;;1999.90;999.90;;;15.40;99.90;;;;;;5117636;28;20024;-65
2023/10/01 05:43:23;;;;;;;1999.90;999.90;;;15.40;99.90;;;;;;5115867;28;20031;-66
2023/10/01 05:45:52;;;;;;;1999.90;999.90;;;15.50;99.90;;;;;;5101280;28;20073;-65
2023/10/01 05:48:23;;;;;;;1999.90;999.90;;;15.50;99.90;;;;;;5117951;28;20080;-66
2023/10/01 05:50:53;;;;;;;1999.90;999.90;;;15.50;99.90;;;;;;5117407;28;20406;-66
2023/10/01 05:53:19;;;;;;;1999.90;999.90;;;15.50;99.90;;;;;;5106030;28;20016;-66
2023/10/01 05:55:44;;;;;;;1999.90;999.90;;;15.50;99.90;;;;;;5113425;28;20022;-66
2023/10/01 05:58:13;;;;;;;1999.90;999.90;;;15.50;99.90;;;;;;5117933;28;20028;-65
2023/10/01 06:00:46;;;;;;;1999.90;999.90;;;15.50;99.90;;;;;;5118022;28;20027;-65
2023/10/01 06:03:15;;;;;;;1999.90;999.90;;;15.50;99.90;;;;;;5114970;28;20027;-73
2023/10/01 06:08:14;;;;;;;1999.90;999.90;;;15.60;99.90;;;;;;5117530;28;20030;-66
2023/10/01 06:10:59;;;;;;;1999.90;999.90;;;15.60;99.90;;;;;;5109424;28;20107;-66
2023/10/01 06:13:28;;;;;;;1999.90;999.90;;;15.60;99.90;;;;;;5103972;28;21046;-66
2023/10/01 06:15:58;;;;;;;1999.90;999.90;;;15.60;99.90;;;;;;5117640;28;20043;-66
2023/10/01 06:18:26;;;;;;;1999.90;999.90;;;15.60;99.90;;;;;;5106902;28;20059;-66
2023/10/01 06:20:53;;;;;;;1999.90;999.90;;;15.60;99.90;;;;;;5106110;28;20387;-66
2023/10/01 06:23:21;;;;;;;1999.90;999.90;;;15.70;99.90;;;;;;5115872;28;20031;-66
2023/10/01 06:25:53;;;;;;;1999.90;999.90;;;15.70;99.90;;;;;;5117655;28;20098;-66
2023/10/01 06:28:23;;;;;;;1999.90;999.90;;;15.70;99.90;;;;;;5094934;28;20035;-66
2023/10/01 06:30:49;;;;;;;1999.90;999.90;;;15.80;99.90;;;;;;5110513;28;20068;-66
2023/10/01 06:33:29;;;;;;;1999.90;999.90;;;15.70;99.90;;;;;;5103400;28;20028;-66
2023/10/01 06:38:53;;;;;;;1999.90;999.90;;;15.80;99.90;;;;;;5037501;28;20049;-66
2023/10/01 06:41:25;;;;;;;1999.90;999.90;;;15.80;99.90;;;;;;5033898;28;20109;-67
2023/10/01 06:43:55;;;;;;;1999.90;999.90;;;15.80;99.90;;;;;;5033776;28;20037;-67
2023/10/01 06:46:28;;;;;;;1999.90;999.90;;;15.90;99.90;;;;;;5034055;28;20320;-73
2023/10/01 06:48:58;;;;;;;1999.90;999.90;;;15.90;99.90;;;;;;5033554;28;20682;-66
2023/10/01 06:51:26;;;;;;;1999.90;999.90;;;15.90;99.90;;;;;;5034062;28;20057;-66
2023/10/01 06:53:59;;;;;;;1999.90;999.90;;;15.90;99.90;;;;;;5035725;28;20025;-66
2023/10/01 06:56:27;;;;;;;1999.90;999.90;;;16.00;99.90;;;;;;5033573;28;20459;-67
2023/10/01 07:01:47;;;;;;;1999.90;999.90;;;16.10;99.90;;;;;;5033260;28;20064;-72
2023/10/01 07:04:18;;;;;;;1999.90;999.90;;;16.10;99.90;;;;;;5033479;28;20412;-64
2023/10/01 07:06:44;;;;;;;1999.90;999.90;;;16.10;99.90;;;;;;5032280;28;20112;-66
2023/10/01 07:12:10;;;;;;;1999.90;999.90;;;16.20;99.90;;;;;;5001456;28;20412;-66
2023/10/01 07:14:43;;;;;;;1999.90;999.90;;;16.20;99.90;;;;;;5015835;28;20025;-66
2023/10/01 07:17:18;;;;;;;1999.90;999.90;;;16.20;99.90;;;;;;5052395;28;20056;-66
2023/10/01 07:19:45;;;;;;;1999.90;999.90;;;16.30;99.90;;;;;;5051830;28;20082;-70
2023/10/01 07:22:14;;;;;;;1999.90;999.90;;;16.30;99.90;;;;;;5065935;28;20036;-66
2023/10/01 07:24:43;;;;;;;1999.90;999.90;;;16.40;99.90;;;;;;5060109;28;20034;-66
2023/10/01 07:27:12;;;;;;;1999.90;999.90;;;16.50;99.90;;;;;;5056760;28;20031;-66
2023/10/01 07:29:41;;;;;;;1999.90;999.90;;;16.90;99.90;;;;;;5045354;28;20184;-67
2023/10/01 07:32:12;;;;;;;1999.90;999.90;;;17.30;99.90;;;;;;5052479;28;20045;-66
2023/10/01 07:34:53;;;;;;;1999.90;999.90;;;17.40;99.90;;;;;;5066542;28;20028;-66
2023/10/01 07:37:31;;;;;;;1999.90;999.90;;;17.60;99.90;;;;;;5055736;28;20066;-66
2023/10/01 07:40:17;;;;;;;1999.90;999.90;;;17.70;99.90;;;;;;5031314;28;20029;-66
2023/10/01 07:42:54;;;;;;;1999.90;999.90;;;17.80;99.90;;;;;;5040883;28;20032;-66
2023/10/01 07:45:21;;;;;;;1999.90;999.90;;;18.00;99.90;;;;;;5062923;28;20113;-66
2023/10/01 07:47:51;;;;;;;1999.90;999.90;;;18.10;99.90;;;;;;5087154;27;20311;-66
2023/10/01 07:50:17;;;;;;;1999.90;999.90;;;18.30;99.90;;;;;;5111459;27;20047;-66
2023/10/01 07:52:44;;;;;;;1999.90;999.90;;;18.50;99.90;;;;;;5105158;27;20334;-65
2023/10/01 07:55:29;;;;;;;1999.90;999.90;;;18.80;99.90;;;;;;5121077;27;20105;-66
2023/10/01 08:00:44;;;;;;;1999.90;999.90;;;19.00;99.90;;;;;;5060002;27;20024;-66
2023/10/01 08:05:50;;;;;;;1999.90;999.90;;;19.40;99.90;;;;;;5104205;27;20430;-67
2023/10/01 08:08:35;;;;;;;1999.90;999.90;;;19.60;99.90;;;;;;5116953;27;20421;-66
2023/10/01 08:11:40;;;;;;;1999.90;999.90;;;19.80;99.90;;;;;;5113325;27;20023;-74
2023/10/01 08:13:51;;;;;;;1999.90;999.90;;;20.00;99.90;;;;;;5116072;27;20032;-66
2023/10/01 08:16:17;;;;;;;1999.90;999.90;;;19.90;99.90;;;;;;5113641;27;20038;-66
2023/10/01 08:18:46;;;;;;;1999.90;999.90;;;20.00;99.90;;;;;;5097570;27;20062;-66
2023/10/01 08:21:18;;;;;;;1999.90;999.90;;;20.20;99.90;;;;;;5108570;27;20272;-67
2023/10/01 08:23:54;;;;;;;1999.90;999.90;;;20.20;99.90;;;;;;5114794;27;20024;-65
2023/10/01 08:29:06;;;;;;;1999.90;999.90;;;20.20;99.90;;;;;;5112360;27;19914;-66
2023/10/01 08:34:22;;;;;;;1999.90;999.90;;;20.50;99.90;;;;;;5118369;27;20019;-66
2023/10/01 08:36:54;;;;;;;1999.90;999.90;;;20.80;99.90;;;;;;5114163;27;20349;-66
2023/10/01 08:39:47;;;;;;;1999.90;999.90;;;20.80;99.90;;;;;;5103550;27;20024;-66
2023/10/01 08:42:16;;;;;;;1999.90;999.90;;;21.00;99.90;;;;;;5082786;28;20103;-66
2023/10/01 08:45:02;;;;;;;1999.90;999.90;;;21.00;99.90;;;;;;5103922;28;20031;-66
2023/10/01 08:47:31;;;;;;;1999.90;999.90;;;20.80;99.90;;;;;;5105217;28;20419;-67
2023/10/01 08:52:56;;;;;;;1999.90;999.90;;;20.30;99.90;;;;;;5101644;28;20027;-66
2023/10/01 08:55:23;;;;;;;1999.90;999.90;;;20.00;99.90;;;;;;5106494;28;20020;-67
2023/10/01 08:57:53;;;;;;;1999.90;999.90;;;19.90;99.90;;;;;;5117316;27;20039;-68
2023/10/01 09:00:24;;;;;;;1999.90;999.90;;;19.70;99.90;;;;;;5120234;27;20024;-75
2023/10/01 09:03:10;;;;;;;1999.90;999.90;;;19.60;99.90;;;;;;5122092;27;20041;-69
2023/10/01 09:05:37;;;;;;;1999.90;999.90;;;19.60;99.90;;;;;;5111872;27;20027;-69
2023/10/01 09:08:26;;;;;;;1999.90;999.90;;;19.50;99.90;;;;;;5099262;28;20040;-73
2023/10/01 09:10:53;;;;;;;1999.90;999.90;;;19.60;99.90;;;;;;5098439;28;20049;-68
2023/10/01 09:13:25;;;;;;;1999.90;999.90;;;19.50;99.90;;;;;;5114010;28;20429;-68
2023/10/01 09:15:55;;;;;;;1999.90;999.90;;;19.60;99.90;;;;;;5118778;28;20042;-68
2023/10/01 09:18:25;;;;;;;1999.90;999.90;;;19.50;99.90;;;;;;5104118;28;20314;-75
2023/10/01 09:21:20;;;;;;;1999.90;999.90;;;19.60;99.90;;;;;;5110812;28;20105;-68
2023/10/01 09:26:39;;;;;;;1999.90;999.90;;;19.80;99.90;;;;;;5118286;28;20062;-69
2023/10/01 09:29:20;;;;;;;1999.90;999.90;;;19.80;99.90;;;;;;5118210;28;20030;-69
2023/10/01 09:31:58;;;;;;;1999.90;999.90;;;19.90;99.90;;;;;;5117324;28;20110;-68
2023/10/01 09:34:46;;;;;;;1999.90;999.90;;;19.90;99.90;;;;;;5105500;28;20031;-76
2023/10/01 09:37:35;;;;;;;1999.90;999.90;;;19.80;99.90;;;;;;5095071;28;20107;-68
2023/10/01 09:40:41;;;;;;;1999.90;999.90;;;19.90;99.90;;;;;;5116188;28;20115;-69
2023/10/01 09:43:04;;;;;;;1999.90;999.90;;;19.90;99.90;;;;;;5113960;28;20118;-68
2023/10/01 09:45:46;;;;;;;1999.90;999.90;;;19.90;99.90;;;;;;5116720;28;20042;-68
2023/10/01 09:48:30;;;;;;;1999.90;999.90;;;19.90;99.90;;;;;;5117146;28;20019;-76
2023/10/01 09:51:15;;;;;;;1999.90;999.90;;;19.90;99.90;;;;;;5116529;28;20040;-68
2023/10/01 09:53:55;;;;;;;1999.90;999.90;;;20.10;99.90;;;;;;5111682;28;20023;-68
2023/10/01 09:56:29;;;;;;;1999.90;999.90;;;20.30;99.90;;;;;;5104239;28;20019;-68
2023/10/01 09:58:58;;;;;;;1999.90;999.90;;;20.50;99.90;;;;;;5118176;28;20020;-69
2023/10/01 10:01:27;;;;;;;1999.90;999.90;;;20.60;99.90;;;;;;5117803;28;20023;-68
2023/10/01 10:04:07;;;;;;;1999.90;999.90;;;20.80;99.90;;;;;;5114759;28;20414;-68
2023/10/01 10:06:34;;;;;;;1999.90;999.90;;;20.90;99.90;;;;;;5103224;28;20019;-69
2023/10/01 10:09:06;;;;;;;1999.90;999.90;;;20.90;99.90;;;;;;5116003;28;20426;-68
2023/10/01 10:11:36;;;;;;;1999.90;999.90;;;21.00;99.90;;;;;;5102776;28;20028;-68
2023/10/01 10:14:25;;;;;;;1999.90;999.90;;;21.20;99.90;;;;;;5117522;28;20153;-69
2023/10/01 10:16:58;;;;;;;1999.90;999.90;;;21.20;99.90;;;;;;5090317;28;20020;-68
2023/10/01 10:19:25;;;;;;;1999.90;999.90;;;21.30;99.90;;;;;;5117501;28;20085;-68
2023/10/01 10:24:33;;;;;;;1999.90;999.90;;;21.50;99.90;;;;;;5117405;28;20116;-68
2023/10/01 10:27:09;;;;;;;1999.90;999.90;;;21.50;99.90;;;;;;5099121;28;20098;-68
2023/10/01 10:29:46;;;;;;;1999.90;999.90;;;21.60;99.90;;;;;;5117250;28;20426;-68
2023/10/01 10:32:29;;;;;;;1999.90;999.90;;;21.70;99.90;;;;;;5084601;28;20038;-68
2023/10/01 10:35:04;;;;;;;1999.90;999.90;;;21.90;99.90;;;;;;5117367;28;20032;-68
2023/10/01 10:37:36;;;;;;;1999.90;999.90;;;22.00;99.90;;;;;;5112290;28;20011;-69
2023/10/01 10:40:13;;;;;;;1999.90;999.90;;;22.10;99.90;;;;;;5117103;28;20020;-69
2023/10/01 10:43:07;;;;;;;1999.90;999.90;;;22.20;99.90;;;;;;5117035;28;20055;-81
2023/10/01 10:45:43;;;;;;;1999.90;999.90;;;22.20;99.90;;;;;;5116344;28;20031;-69
2023/10/01 10:48:16;;;;;;;1999.90;999.90;;;22.20;99.90;;;;;;5099015;28;20406;-68
2023/10/01 10:50:57;;;;;;;1999.90;999.90;;;22.20;99.90;;;;;;5111865;28;20060;-67
2023/10/01 10:53:24;;;;;;;1999.90;999.90;;;22.20;99.90;;;;;;5110615;28;20114;-67
2023/10/01 10:56:04;;;;;;;1999.90;999.90;;;22.20;99.90;;;;;;5115315;28;20073;-68
2023/10/01 10:58:39;;;;;;;1999.90;999.90;;;22.20;99.90;;;;;;5108259;28;20055;-67
2023/10/01 11:01:15;;;;;;;1999.90;999.90;;;22.20;99.90;;;;;;5101532;28;20032;-68
2023/10/01 11:03:42;;;;;;;1999.90;999.90;;;22.30;99.90;;;;;;5101117;28;20114;-67
2023/10/01 11:06:21;;;;;;;1999.90;999.90;;;22.40;99.90;;;;;;5100037;28;20352;-67
2023/10/01 11:08:52;;;;;;;1999.90;999.90;;;22.50;99.90;;;;;;5093552;28;20031;-68
2023/10/01 11:11:25;;;;;;;1999.90;999.90;;;22.50;99.90;;;;;;5112901;28;20048;-67
2023/10/01 11:14:00;;;;;;;1999.90;999.90;;;22.60;99.90;;;;;;5106501;28;20114;-77
2023/10/01 11:16:39;;;;;;;1999.90;999.90;;;22.60;99.90;;;;;;5116097;28;20036;-67
2023/10/01 11:19:14;;;;;;;1999.90;999.90;;;22.70;99.90;;;;;;5112107;28;20039;-66
2023/10/01 11:21:46;;;;;;;1999.90;999.90;;;22.70;99.90;;;;;;5101065;28;20038;-66
2023/10/01 11:24:16;;;;;;;1999.90;999.90;;;22.70;99.90;;;;;;5115639;28;20450;-73
2023/10/01 11:27:43;;;;;;;1999.90;999.90;;;22.60;99.90;;;;;;5116031;28;20032;-65
2023/10/01 11:30:15;;;;;;;1999.90;999.90;;;22.60;99.90;;;;;;5101202;28;20027;-65
2023/10/01 11:35:37;;;;;;;1999.90;999.90;;;22.80;99.90;;;;;;5113586;28;20042;-65
2023/10/01 11:38:20;;;;;;;1999.90;999.90;;;22.80;99.90;;;;;;5111934;28;20331;-76
2023/10/01 11:43:58;;;;;;;1999.90;999.90;;;22.90;99.90;;;;;;5098812;28;20088;-65
2023/10/01 11:46:29;;;;;;;1999.90;999.90;;;23.00;99.90;;;;;;5110636;28;20425;-74
2023/10/01 11:49:11;;;;;;;1999.90;999.90;;;23.10;99.90;;;;;;5097029;28;20043;-66
2023/10/01 11:51:54;;;;;;;1999.90;999.90;;;23.20;99.90;;;;;;5115128;28;20103;-66
2023/10/01 11:55:18;;;;;;;1999.90;999.90;;;23.30;99.90;;;;;;5102528;28;20034;-65
2023/10/01 11:57:23;;;;;;;1999.90;999.90;;;23.40;99.90;;;;;;5104919;28;20410;-67
2023/10/01 11:59:58;;;;;;;1999.90;999.90;;;23.50;99.90;;;;;;5109945;28;20038;-65
2023/10/01 12:02:33;;;;;;;1999.90;999.90;;;23.50;99.90;;;;;;5115825;28;20015;-66
2023/10/01 12:05:04;;;;;;;1999.90;999.90;;;23.50;99.90;;;;;;5111143;28;20031;-66
2023/10/01 12:07:45;;;;;;;1999.90;999.90;;;23.40;99.90;;;;;;5115798;28;22516;-65
2023/10/01 12:12:59;;;;;;;1999.90;999.90;;;23.10;99.90;;;;;;5107864;28;20038;-66
2023/10/01 12:15:34;;;;;;;1999.90;999.90;;;23.10;99.90;;;;;;5113157;28;20031;-66
2023/10/01 12:18:08;;;;;;;1999.90;999.90;;;23.10;99.90;;;;;;5113279;28;20100;-66
2023/10/01 12:20:40;;;;;;;1999.90;999.90;;;23.20;99.90;;;;;;5098639;28;20036;-66
2023/10/01 12:23:13;;;;;;;1999.90;999.90;;;23.20;99.90;;;;;;5105179;28;20028;-66
2023/10/01 12:25:52;;;;;;;1999.90;999.90;;;23.30;99.90;;;;;;5104177;28;20016;-66
2023/10/01 12:28:27;;;;;;;1999.90;999.90;;;23.40;99.90;;;;;;5106817;28;20024;-67
2023/10/01 12:30:57;;;;;;;1999.90;999.90;;;23.50;99.90;;;;;;5094647;28;20028;-66
2023/10/01 12:33:38;;;;;;;1999.90;999.90;;;23.50;99.90;;;;;;5100930;28;20030;-66
2023/10/01 12:36:31;;;;;;;1999.90;999.90;;;23.50;99.90;;;;;;5094519;28;20077;-65
2023/10/01 12:44:25;;;;;;;1999.90;999.90;;;23.30;99.90;;;;;;5097348;28;20016;-65
2023/10/01 12:47:01;;;;;;;1999.90;999.90;;;23.20;99.90;;;;;;5101072;28;20127;-66
2023/10/01 12:49:28;;;;;;;1999.90;999.90;;;23.10;99.90;;;;;;5094366;28;20036;-73
2023/10/01 12:51:54;;;;;;;1999.90;999.90;;;23.20;99.90;;;;;;5097735;28;20049;-65
2023/10/01 12:54:27;;;;;;;1999.90;999.90;;;23.20;99.90;;;;;;5106382;28;20039;-65
2023/10/01 12:57:10;;;;;;;1999.90;999.90;;;23.30;99.90;;;;;;5086349;28;20296;-65
2023/10/01 12:59:58;;;;;;;1999.90;999.90;;;23.50;99.90;;;;;;5103414;28;20059;-66
2023/10/01 13:07:46;;;;;;;1999.90;999.90;;;23.70;99.90;;;;;;5110921;28;20050;-65
2023/10/01 13:10:13;;;;;;;1999.90;999.90;;;23.70;99.90;;;;;;5093412;28;20063;-65
2023/10/01 13:12:53;;;;;;;1999.90;999.90;;;23.60;99.90;;;;;;5104004;28;20019;-66
2023/10/01 13:15:29;;;;;;;1999.90;999.90;;;23.50;99.90;;;;;;5094517;28;20449;-66
2023/10/01 13:18:04;;;;;;;1999.90;999.90;;;23.30;99.90;;;;;;5113479;28;20461;-66
2023/10/01 13:20:48;;;;;;;1999.90;999.90;;;23.20;99.90;;;;;;5104051;28;20054;-75
2023/10/01 13:23:14;;;;;;;1999.90;999.90;;;23.10;99.90;;;;;;5098091;28;20454;-65
2023/10/01 13:26:05;;;;;;;1999.90;999.90;;;23.10;99.90;;;;;;5098901;28;20032;-65
2023/10/01 13:28:50;;;;;;;1999.90;999.90;;;23.00;99.90;;;;;;5106628;28;20290;-65
2023/10/01 13:36:50;;;;;;;1999.90;999.90;;;23.60;99.90;;;;;;5106734;28;20046;-65